PST,Max TemperatureF,Mean TemperatureF,Min TemperatureF,Max Dew PointF,MeanDew PointF,Min DewpointF,Max Humidity, Mean Humidity, Min Humidity, Max Sea Level PressureIn, Mean Sea Level PressureIn, Min Sea Level PressureIn, Max VisibilityMiles, Mean VisibilityMiles, Min VisibilityMiles, Max Wind SpeedMPH, Mean Wind SpeedMPH, Max Gust SpeedMPH,PrecipitationIn, CloudCover, Events, WindDirDegrees
2012-11-1,66,62,58,58,55,53,93,83,73,30.03,30.01,29.99,10,9,2,25,5,,0.11,6,Rain,311
2012-11-2,71,61,50,53,51,47,93,71,49,30.08,30.04,30.01,10,10,10,10,6,,0.00,0,,323
2012-11-3,74,61,48,52,49,46,93,66,38,30.15,30.11,30.07,10,9,6,9,2,30,0.00,0,,319
2012-11-4,78,63,47,53,50,45,93,65,36,30.23,30.17,30.13,10,9,4,9,2,12,0.00,0,,129
2012-11-5,80,65,49,55,52,48,96,66,36,30.19,30.11,30.05,10,8,4,5,2,,0.00,0,,128
2012-11-6,82,66,49,55,52,47,93,71,35,30.11,30.04,29.99,9,6,4,7,2,8,0.00,0,,114
2012-11-7,82,65,47,51,49,46,94,71,29,30.03,29.97,29.88,10,7,2,9,1,12,0.00,0,,360
2012-11-8,65,58,51,49,42,34,89,64,35,29.98,29.91,29.85,10,10,9,24,7,30,T,4,Rain,300
2012-11-9,57,49,41,43,40,36,93,74,47,29.99,29.94,29.91,10,10,7,7,3,,0.03,6,Rain,72
2012-11-10,59,49,38,41,37,32,93,69,36,30.25,30.11,29.99,10,10,9,10,4,13,0.00,2,,70
2012-11-11,60,47,34,36,33,29,89,66,31,30.40,30.35,30.26,10,9,6,7,1,13,0.00,0,,11
2012-11-12,63,48,33,38,34,32,93,63,32,30.40,30.33,30.25,10,8,2,12,2,15,0.00,0,,312
2012-11-13,67,51,34,41,36,32,92,66,32,30.28,30.19,30.11,10,9,6,7,1,18,0.00,0,,265
2012-11-14,67,53,38,45,40,36,93,73,40,30.15,30.10,30.04,10,8,4,29,2,31,0.00,0,,96
2012-11-15,69,53,37,44,40,36,93,69,37,30.05,30.01,29.96,6,4,2,16,3,25,0.00,1,,136
2012-11-16,63,56,48,53,48,44,93,81,60,30.03,29.98,29.92,10,6,2,14,3,20,0.02,7,Rain,138
2012-11-17,65,61,56,57,54,48,93,80,72,30.02,29.93,29.86,10,10,5,21,11,30,0.07,6,Rain,141
2012-11-18,63,58,53,54,51,47,94,86,56,30.18,30.10,30.02,10,8,2,8,3,10,0.20,6,Rain,28
2012-11-19,68,58,48,51,47,41,96,77,42,30.25,30.20,30.17,10,8,3,10,2,15,0.00,2,,125
2012-11-20,69,58,47,51,48,45,93,70,47,30.18,30.12,30.06,10,9,4,14,6,18,0.00,3,,136
2012-11-21,66,61,55,54,50,45,88,76,63,30.19,30.14,30.06,10,8,5,21,6,38,0.02,5,Rain,40
2012-11-22,64,56,48,47,44,41,93,74,46,30.26,30.21,30.18,10,9,6,14,7,17,0.00,1,,311
2012-11-23,67,53,38,48,41,37,100,85,49,30.29,30.23,30.18,10,5,0,6,1,10,0.00,1,Fog,115
2012-11-24,67,53,38,49,42,37,100,86,52,30.21,30.15,30.04,10,4,0,8,1,12,0.00,1,Fog,98
2012-11-25,65,51,37,51,41,36,100,89,52,30.04,30.00,29.93,10,3,0,8,1,12,0.00,1,Fog,69
2012-11-26,66,52,38,54,43,37,100,90,52,30.08,30.03,29.98,6,2,0,5,2,,0.00,2,Fog,110
2012-11-27,62,51,40,49,44,39,100,89,60,30.14,30.07,30.02,6,2,0,6,1,,0.00,2,Fog,103
2012-11-28,61,56,50,57,52,46,100,91,75,30.08,29.99,29.92,10,4,2,28,7,38,0.34,6,Rain,137
2012-11-29,63,57,51,54,52,49,100,81,65,30.09,30.04,29.94,10,8,2,17,6,52,T,3,,147
2012-11-30,64,61,58,60,56,53,100,87,70,30.06,29.95,29.87,10,8,2,23,13,32,0.80,6,Rain,143